createdAt,value
2019-04-05T00:02:23.585Z,49.70
2019-04-05T00:04:53.089Z,49.90
2019-04-05T00:07:22.640Z,49.90
2019-04-05T00:09:53.356Z,49.60
2019-04-05T00:12:22.840Z,49.70
2019-04-05T00:14:53.866Z,49.90
2019-04-05T00:17:25.074Z,50.00
2019-04-05T00:19:54.451Z,50.00
2019-04-05T00:22:23.909Z,49.90
2019-04-05T00:24:53.391Z,50.00
2019-04-05T00:27:23.476Z,50.00
2019-04-05T00:29:53.173Z,49.90
2019-04-05T00:32:24.363Z,49.90
2019-04-05T00:34:53.933Z,50.40
2019-04-05T00:37:24.679Z,50.00
2019-04-05T00:39:55.398Z,50.00
2019-04-05T00:42:27.088Z,49.90
2019-04-05T00:44:56.529Z,50.20
2019-04-05T00:47:29.114Z,50.30
2019-04-05T00:50:01.717Z,50.30
2019-04-05T00:52:32.322Z,50.40
2019-04-05T00:55:01.865Z,50.30
2019-04-05T00:57:31.689Z,50.30
2019-04-05T01:00:02.687Z,50.30
2019-04-05T01:02:32.355Z,50.10
2019-04-05T01:05:01.806Z,50.20
2019-04-05T01:07:34.116Z,50.30
2019-04-05T01:10:09.121Z,50.90
2019-04-05T01:12:41.379Z,50.40
2019-04-05T01:15:14.880Z,50.20
2019-04-05T01:17:44.482Z,50.50
2019-04-05T01:20:14.175Z,51.20
2019-04-05T01:22:46.164Z,50.40
2019-04-05T01:25:15.739Z,50.60
2019-04-05T01:27:48.228Z,50.40
2019-04-05T01:30:16.710Z,50.50
2019-04-05T01:32:48.133Z,50.50
2019-04-05T01:35:17.850Z,50.50
2019-04-05T01:37:47.752Z,50.50
2019-04-05T01:40:20.555Z,50.60
2019-04-05T01:42:51.959Z,50.50
2019-04-05T01:45:21.507Z,50.60
2019-04-05T01:47:52.095Z,50.60
2019-04-05T01:50:22.945Z,50.60
2019-04-05T01:52:52.518Z,50.60
2019-04-05T01:55:22.025Z,50.60
2019-04-05T01:57:51.561Z,50.80
2019-04-05T02:00:21.003Z,50.80
2019-04-05T02:02:50.579Z,50.90
2019-04-05T02:05:20.229Z,50.90
2019-04-05T02:07:50.808Z,51.00
2019-04-05T02:10:20.427Z,50.80
2019-04-05T02:12:49.935Z,50.50
2019-04-05T02:15:28.444Z,50.70
2019-04-05T02:17:58.367Z,50.70
2019-04-05T02:20:27.967Z,50.70
2019-04-05T02:22:58.165Z,50.60
2019-04-05T02:25:28.658Z,50.60
2019-04-05T02:27:58.383Z,50.80
2019-04-05T02:30:28.228Z,50.50
2019-04-05T02:32:58.873Z,50.60
2019-04-05T02:35:28.871Z,51.00
2019-04-05T02:37:58.410Z,50.90
2019-04-05T02:40:29.612Z,50.80
2019-04-05T02:43:01.692Z,51.20
2019-04-05T02:45:33.625Z,51.20
2019-04-05T02:48:06.068Z,51.10
2019-04-05T02:50:38.339Z,51.10
2019-04-05T02:53:10.804Z,51.30
2019-04-05T02:55:41.613Z,51.50
2019-04-05T02:58:12.963Z,51.30
2019-04-05T03:00:44.637Z,51.50
2019-04-05T03:03:16.624Z,51.40
2019-04-05T03:05:47.280Z,51.70
2019-04-05T03:08:18.196Z,51.60
2019-04-05T03:11:00.951Z,51.70
2019-04-05T03:13:33.804Z,51.90
2019-04-05T03:16:06.137Z,51.90
2019-04-05T03:18:39.656Z,52.00
2019-04-05T03:21:09.923Z,52.10
2019-04-05T03:23:42.811Z,52.00
2019-04-05T03:26:15.393Z,51.70
2019-04-05T03:28:49.025Z,52.00
2019-04-05T03:31:24.252Z,52.00
2019-04-05T03:33:50.735Z,52.20
2019-04-05T03:36:20.316Z,51.90
2019-04-05T03:38:49.913Z,52.10
2019-04-05T03:41:19.724Z,52.10
2019-04-05T03:43:50.452Z,52.20
2019-04-05T03:46:20.320Z,52.40
2019-04-05T03:48:50.319Z,52.30
2019-04-05T03:51:20.407Z,52.20
2019-04-05T03:53:50.491Z,52.30
2019-04-05T03:56:22.149Z,52.20
2019-04-05T03:58:52.773Z,52.10
2019-04-05T04:01:22.284Z,52.20
2019-04-05T04:03:51.751Z,52.40
2019-04-05T04:06:22.832Z,52.50
2019-04-05T04:08:53.957Z,52.50
2019-04-05T04:11:23.595Z,52.50
2019-04-05T04:13:54.858Z,52.80
2019-04-05T04:16:24.726Z,52.60
2019-04-05T04:18:54.233Z,52.70
2019-04-05T04:21:29.678Z,52.60
2019-04-05T04:24:01.314Z,52.50
2019-04-05T04:26:32.035Z,52.50
2019-04-05T04:29:01.617Z,52.30
2019-04-05T04:31:31.387Z,52.40
2019-04-05T04:34:04.749Z,52.30
2019-04-05T04:36:41.100Z,52.20
2019-04-05T04:39:10.893Z,52.30
2019-04-05T04:41:40.889Z,52.30
2019-04-05T04:44:10.389Z,52.40
2019-04-05T04:46:40.407Z,52.50
2019-04-05T04:49:10.551Z,52.40
2019-04-05T04:51:40.459Z,53.10
2019-04-05T04:54:10.612Z,52.40
2019-04-05T04:56:40.360Z,52.30
2019-04-05T04:59:09.875Z,52.40
2019-04-05T05:01:39.700Z,52.30
2019-04-05T05:04:09.563Z,52.20
2019-04-05T05:06:39.245Z,52.20
2019-04-05T05:09:08.947Z,52.00
2019-04-05T05:11:38.723Z,51.90
2019-04-05T05:14:15.784Z,52.10
2019-04-05T05:16:45.316Z,52.10
2019-04-05T05:19:15.078Z,51.90
2019-04-05T05:21:44.652Z,52.00
2019-04-05T05:24:14.274Z,52.00
2019-04-05T05:26:44.133Z,51.80
2019-04-05T05:29:13.663Z,51.60
2019-04-05T05:31:43.465Z,51.80
2019-04-05T05:34:13.152Z,51.90
2019-04-05T05:36:42.972Z,51.50
2019-04-05T05:39:12.416Z,51.20
2019-04-05T05:41:41.864Z,51.00
2019-04-05T05:44:11.384Z,51.10
2019-04-05T05:46:40.926Z,51.30
2019-04-05T05:49:10.524Z,51.80
2019-04-05T05:51:40.327Z,50.90
2019-04-05T05:54:09.785Z,51.10
2019-04-05T05:56:39.246Z,50.90
2019-04-05T05:59:08.685Z,50.70
2019-04-05T06:01:39.135Z,50.40
2019-04-05T06:04:08.565Z,50.50
2019-04-05T06:06:38.194Z,50.20
2019-04-05T06:09:08.243Z,50.10
2019-04-05T06:11:37.692Z,50.10
2019-04-05T06:14:07.202Z,50.10
2019-04-05T06:16:46.276Z,50.10
2019-04-05T06:19:07.750Z,49.90
2019-04-05T06:21:37.570Z,49.70
2019-04-05T06:24:06.950Z,49.40
2019-04-05T06:26:36.457Z,49.20
2019-04-05T06:29:05.892Z,48.70
2019-04-05T06:31:35.399Z,48.60
2019-04-05T06:34:04.899Z,48.60
2019-04-05T06:36:34.395Z,48.30
2019-04-05T06:39:06.213Z,47.90
2019-04-05T06:41:36.304Z,47.60
2019-04-05T06:44:05.816Z,47.70
2019-04-05T06:46:35.344Z,48.00
2019-04-05T06:49:04.833Z,47.90
2019-04-05T06:51:35.941Z,47.70
2019-04-05T06:54:08.533Z,47.50
2019-04-05T06:56:38.001Z,47.20
2019-04-05T06:59:07.484Z,47.30
2019-04-05T07:01:36.946Z,47.30
2019-04-05T07:04:06.816Z,47.40
2019-04-05T07:06:36.422Z,46.80
2019-04-05T07:09:06.540Z,46.30
2019-04-05T07:11:36.088Z,46.30
2019-04-05T07:14:05.620Z,46.50
2019-04-05T07:16:35.283Z,46.70
2019-04-05T07:19:04.836Z,46.70
2019-04-05T07:21:34.320Z,45.70
2019-04-05T07:24:03.737Z,45.80
2019-04-05T07:26:33.364Z,46.20
2019-04-05T07:29:02.846Z,46.30
2019-04-05T07:31:32.286Z,46.30
2019-04-05T07:34:01.723Z,45.70
2019-04-05T07:36:31.181Z,45.80
2019-04-05T07:39:00.687Z,45.10
2019-04-05T07:41:32.042Z,45.70
2019-04-05T07:44:01.477Z,44.60
2019-04-05T07:46:31.065Z,45.20
2019-04-05T07:49:00.582Z,44.90
2019-04-05T07:51:31.141Z,45.10
2019-04-05T07:54:00.639Z,44.70
2019-04-05T07:56:31.104Z,45.40
2019-04-05T07:59:00.557Z,45.00
2019-04-05T08:01:30.006Z,44.30
2019-04-05T08:03:59.480Z,44.30
2019-04-05T08:06:29.401Z,44.20
2019-04-05T08:09:02.360Z,44.30
2019-04-05T08:11:34.010Z,44.10
2019-04-05T08:14:03.754Z,44.50
2019-04-05T08:16:33.409Z,44.60
2019-04-05T08:19:02.967Z,44.30
2019-04-05T08:21:32.442Z,43.80
2019-04-05T08:24:01.957Z,44.00
2019-04-05T08:26:32.070Z,43.90
2019-04-05T08:29:01.503Z,44.00
2019-04-05T08:31:30.958Z,44.40
2019-04-05T08:34:00.494Z,44.80
2019-04-05T08:36:32.703Z,42.70
2019-04-05T08:39:01.792Z,42.80
2019-04-05T08:41:32.942Z,41.90
2019-04-05T08:44:02.524Z,41.20
2019-04-05T08:46:32.264Z,41.50
2019-04-05T08:49:10.434Z,41.70
2019-04-05T08:51:32.800Z,41.20
2019-04-05T08:54:02.368Z,41.20
2019-04-05T08:56:31.812Z,40.40
2019-04-05T08:59:01.301Z,40.60
2019-04-05T09:01:30.734Z,39.70
2019-04-05T09:04:00.343Z,40.50
2019-04-05T09:06:29.895Z,40.10
2019-04-05T09:09:00.103Z,40.80
2019-04-05T09:11:29.585Z,40.40
2019-04-05T09:13:59.059Z,39.70
2019-04-05T09:16:28.505Z,39.30
2019-04-05T09:18:57.973Z,39.10
2019-04-05T09:21:27.406Z,39.20
2019-04-05T09:23:59.225Z,38.90
2019-04-05T09:26:28.110Z,38.40
2019-04-05T09:28:57.552Z,38.80
2019-04-05T09:31:26.999Z,38.60
2019-04-05T09:33:56.449Z,38.50
2019-04-05T09:36:25.944Z,38.90
2019-04-05T09:38:55.423Z,38.80
2019-04-05T09:41:24.898Z,39.20
2019-04-05T09:43:54.403Z,38.80
2019-04-05T09:46:23.873Z,38.90
2019-04-05T09:48:53.548Z,38.90
2019-04-05T09:51:23.021Z,38.90
2019-04-05T09:53:52.473Z,39.00
2019-04-05T09:56:23.801Z,38.90
2019-04-05T09:58:53.405Z,38.10
2019-04-05T10:01:22.831Z,38.50
2019-04-05T10:03:55.091Z,37.70
2019-04-05T10:06:24.948Z,38.10
2019-04-05T10:08:54.483Z,38.10
2019-04-05T10:11:24.928Z,37.80
2019-04-05T10:13:54.450Z,37.60
2019-04-05T10:16:23.931Z,38.30
2019-04-05T10:18:53.405Z,37.70
2019-04-05T10:21:22.947Z,37.90
2019-04-05T10:23:53.293Z,37.10
2019-04-05T10:26:22.913Z,36.80
2019-04-05T10:28:52.410Z,37.80
2019-04-05T10:31:21.939Z,38.30
2019-04-05T10:33:51.480Z,38.70
2019-04-05T10:36:20.943Z,37.80
2019-04-05T10:38:50.495Z,37.70
2019-04-05T10:41:22.845Z,38.60
2019-04-05T10:43:52.129Z,38.20
2019-04-05T10:46:22.555Z,37.70
2019-04-05T10:48:52.053Z,38.10
2019-04-05T10:51:21.551Z,38.50
2019-04-05T10:53:51.036Z,38.20
2019-04-05T10:56:20.597Z,38.60
2019-04-05T10:58:50.048Z,38.10
2019-04-05T11:01:19.527Z,37.90
2019-04-05T11:03:49.107Z,37.80
2019-04-05T11:06:18.568Z,38.30
2019-04-05T11:08:48.040Z,37.40
2019-04-05T11:11:17.628Z,38.00
2019-04-05T11:13:47.121Z,38.20
2019-04-05T11:16:16.576Z,37.90
2019-04-05T11:18:46.022Z,37.50
2019-04-05T11:21:16.280Z,36.90
2019-04-05T11:23:46.583Z,38.20
2019-04-05T11:26:16.053Z,37.20
2019-04-05T11:28:45.535Z,37.20
2019-04-05T11:31:15.064Z,37.40
2019-04-05T11:33:44.603Z,36.00
2019-04-05T11:36:14.392Z,36.20
2019-04-05T11:38:44.044Z,36.60
2019-04-05T11:41:13.887Z,36.20
2019-04-05T11:43:44.280Z,37.60
2019-04-05T11:46:13.867Z,36.50
2019-04-05T11:48:44.170Z,36.20
2019-04-05T11:51:13.706Z,36.00
2019-04-05T11:53:43.141Z,36.30
2019-04-05T11:56:14.950Z,35.70
2019-04-05T11:58:48.506Z,36.00
2019-04-05T12:01:18.047Z,36.20
2019-04-05T12:03:47.646Z,35.90
2019-04-05T12:06:17.127Z,36.50
2019-04-05T12:08:47.688Z,35.90
2019-04-05T12:11:17.279Z,36.70
2019-04-05T12:13:47.723Z,35.90
2019-04-05T12:16:18.315Z,37.60
2019-04-05T12:18:48.023Z,36.60
2019-04-05T12:21:20.645Z,35.90
2019-04-05T12:23:48.543Z,36.00
2019-04-05T12:26:18.059Z,36.80
2019-04-05T12:28:54.016Z,36.30
2019-04-05T12:31:25.067Z,35.70
2019-04-05T12:33:54.517Z,36.90
2019-04-05T12:36:24.096Z,36.00
2019-04-05T12:38:54.338Z,36.20
2019-04-05T12:41:24.042Z,36.10
2019-04-05T12:44:19.742Z,36.10
2019-04-05T12:46:50.281Z,36.30
2019-04-05T12:49:20.847Z,36.00
2019-04-05T12:51:50.324Z,36.60
2019-04-05T12:54:19.996Z,37.20
2019-04-05T12:56:49.478Z,37.00
2019-04-05T12:59:18.958Z,35.90
2019-04-05T13:01:48.450Z,36.30
2019-04-05T13:04:20.325Z,36.00
2019-04-05T13:06:52.917Z,36.50
2019-04-05T13:09:23.524Z,35.90
2019-04-05T13:11:56.522Z,36.40
2019-04-05T13:14:26.489Z,36.20
2019-04-05T13:16:56.503Z,35.80
2019-04-05T13:19:25.950Z,36.20
2019-04-05T13:21:56.595Z,35.90
2019-04-05T13:24:26.073Z,36.20
2019-04-05T13:26:55.630Z,38.10
2019-04-05T13:29:25.087Z,36.80
2019-04-05T13:31:55.656Z,37.30
2019-04-05T13:34:26.040Z,36.60
2019-04-05T13:36:55.945Z,36.80
2019-04-05T13:39:27.473Z,37.20
2019-04-05T13:41:56.666Z,37.20
2019-04-05T13:44:31.574Z,36.70
2019-04-05T13:46:58.765Z,36.80
2019-04-05T13:49:28.242Z,36.90
2019-04-05T13:51:57.669Z,37.10
2019-04-05T13:54:27.128Z,36.70
2019-04-05T13:56:57.627Z,36.90
2019-04-05T13:59:27.214Z,36.60
2019-04-05T14:02:05.943Z,36.30
2019-04-05T14:04:29.724Z,36.50
2019-04-05T14:06:58.894Z,36.60
2019-04-05T14:09:28.332Z,36.70
2019-04-05T14:11:57.823Z,37.30
2019-04-05T14:14:28.520Z,38.00
2019-04-05T14:16:58.068Z,37.40
2019-04-05T14:19:28.775Z,37.40
2019-04-05T14:22:08.305Z,37.90
2019-04-05T14:24:30.542Z,37.30
2019-04-05T14:27:02.871Z,37.30
2019-04-05T14:29:33.153Z,37.90
2019-04-05T14:32:19.415Z,37.00
2019-04-05T14:34:33.519Z,36.90
2019-04-05T14:37:02.991Z,37.30
2019-04-05T14:39:32.498Z,37.30
2019-04-05T14:42:09.630Z,37.90
2019-04-05T14:44:33.242Z,37.10
2019-04-05T14:47:03.728Z,37.40
2019-04-05T14:49:33.254Z,36.80
2019-04-05T14:52:02.894Z,37.00
2019-04-05T14:54:32.437Z,37.10
2019-04-05T14:57:05.632Z,37.30
2019-04-05T14:59:33.998Z,37.70
2019-04-05T15:02:03.652Z,37.90
2019-04-05T15:04:33.222Z,38.00
2019-04-05T15:07:02.693Z,37.90
2019-04-05T15:09:32.136Z,37.90
2019-04-05T15:12:01.696Z,37.40
2019-04-05T15:14:31.151Z,38.10
2019-04-05T15:17:00.738Z,38.00
2019-04-05T15:19:30.334Z,38.10
2019-04-05T15:22:05.520Z,37.80
2019-04-05T15:24:30.944Z,37.70
2019-04-05T15:27:00.424Z,38.10
2019-04-05T15:29:29.936Z,38.10
2019-04-05T15:31:59.971Z,38.20
2019-04-05T15:34:29.417Z,38.10
2019-04-05T15:37:01.566Z,37.90
2019-04-05T15:39:32.297Z,38.10
2019-04-05T15:42:01.792Z,38.20
2019-04-05T15:44:31.262Z,38.20
2019-04-05T15:47:00.699Z,37.90
2019-04-05T15:49:30.218Z,38.10
2019-04-05T15:51:59.684Z,38.20
2019-04-05T15:54:29.399Z,38.30
2019-04-05T15:57:03.375Z,37.70
2019-04-05T15:59:33.298Z,38.00
2019-04-05T16:02:03.907Z,37.80
2019-04-05T16:04:33.910Z,38.00
2019-04-05T16:07:03.424Z,38.30
2019-04-05T16:09:34.382Z,38.20
2019-04-05T16:12:04.173Z,38.20
2019-04-05T16:14:34.983Z,38.20
2019-04-05T16:17:04.489Z,38.10
2019-04-05T16:19:34.050Z,38.10
2019-04-05T16:22:05.230Z,37.90
2019-04-05T16:24:35.990Z,38.00
2019-04-05T16:27:05.504Z,38.20
2019-04-05T16:29:35.088Z,38.50
2019-04-05T16:32:04.675Z,38.70
2019-04-05T16:34:34.238Z,38.60
2019-04-05T16:37:03.663Z,38.70
2019-04-05T16:39:33.140Z,38.70
2019-04-05T16:42:02.707Z,39.00
2019-04-05T16:44:32.192Z,38.90
2019-04-05T16:47:01.654Z,38.80
2019-04-05T16:49:31.212Z,38.70
2019-04-05T16:52:00.654Z,38.50
2019-04-05T16:54:31.118Z,39.10
2019-04-05T16:57:00.655Z,39.70
2019-04-05T16:59:31.199Z,40.20
2019-04-05T17:02:00.713Z,40.40
2019-04-05T17:04:30.243Z,40.90
2019-04-05T17:06:59.731Z,41.10
2019-04-05T17:09:29.181Z,41.20
2019-04-05T17:11:58.642Z,41.40
2019-04-05T17:14:28.176Z,41.40
2019-04-05T17:16:57.622Z,41.70
2019-04-05T17:19:27.084Z,41.70
2019-04-05T17:21:56.526Z,42.20
2019-04-05T17:24:26.045Z,42.10
2019-04-05T17:26:55.536Z,42.10
2019-04-05T17:29:25.066Z,42.50
2019-04-05T17:31:54.603Z,42.50
2019-04-05T17:34:24.055Z,42.70
2019-04-05T17:36:53.814Z,42.70
2019-04-05T17:39:23.380Z,42.90
2019-04-05T17:41:52.830Z,43.30
2019-04-05T17:44:22.344Z,43.50
2019-04-05T17:46:51.822Z,43.60
2019-04-05T17:49:21.275Z,43.40
2019-04-05T17:51:50.855Z,43.80
2019-04-05T17:54:20.352Z,44.00
2019-04-05T17:56:49.945Z,43.90
2019-04-05T17:59:19.535Z,44.40
2019-04-05T18:01:49.303Z,44.70
2019-04-05T18:04:19.839Z,44.60
2019-04-05T18:06:49.364Z,44.40
2019-04-05T18:09:18.885Z,44.60
2019-04-05T18:11:48.420Z,44.80
2019-04-05T18:14:17.879Z,45.00
2019-04-05T18:16:47.360Z,44.90
2019-04-05T18:19:16.859Z,45.00
2019-04-05T18:21:46.451Z,45.00
2019-04-05T18:24:15.920Z,45.20
2019-04-05T18:26:45.367Z,45.30
2019-04-05T18:29:14.873Z,45.40
2019-04-05T18:31:44.328Z,45.40
2019-04-05T18:34:13.774Z,45.60
2019-04-05T18:36:43.254Z,45.80
2019-04-05T18:39:13.030Z,46.20
2019-04-05T18:41:42.560Z,46.10
2019-04-05T18:44:12.019Z,46.00
2019-04-05T18:46:41.472Z,46.20
2019-04-05T18:49:11.287Z,46.30
2019-04-05T18:51:40.744Z,46.60
2019-04-05T18:54:10.264Z,47.00
2019-04-05T18:56:39.693Z,47.00
2019-04-05T18:59:09.153Z,47.10
2019-04-05T19:01:38.602Z,47.40
2019-04-05T19:04:08.076Z,47.40
2019-04-05T19:06:37.497Z,47.40
2019-04-05T19:09:07.733Z,47.30
2019-04-05T19:11:38.097Z,47.60
2019-04-05T19:14:07.702Z,47.70
2019-04-05T19:16:37.651Z,48.10
2019-04-05T19:19:07.313Z,48.10
2019-04-05T19:21:36.923Z,48.40
2019-04-05T19:24:06.527Z,48.60
2019-04-05T19:26:37.022Z,48.60
2019-04-05T19:29:06.641Z,48.60
2019-04-05T19:49:14.457Z,49.40
2019-04-05T19:51:45.185Z,49.50
2019-04-05T19:54:14.637Z,49.60
2019-04-05T19:56:44.080Z,49.70
2019-04-05T19:59:13.529Z,49.60
2019-04-05T20:01:42.997Z,49.90
2019-04-05T20:04:12.620Z,50.00
2019-04-05T20:06:42.068Z,50.40
2019-04-05T20:09:11.687Z,50.50
2019-04-05T20:11:42.332Z,50.60
2019-04-05T20:14:12.299Z,50.30
2019-04-05T20:16:41.727Z,50.40
2019-04-05T20:19:12.230Z,50.60
2019-04-05T20:21:41.785Z,50.40
2019-04-05T20:24:14.291Z,50.60
2019-04-05T20:26:42.483Z,50.60
2019-04-05T20:29:12.044Z,50.60
2019-04-05T20:31:41.569Z,50.60
2019-04-05T20:34:11.060Z,50.50
2019-04-05T20:36:40.585Z,50.30
2019-04-05T20:39:10.135Z,50.50
2019-04-05T20:41:39.747Z,50.30
2019-04-05T20:44:09.186Z,50.10
2019-04-05T20:46:38.696Z,49.70
2019-04-05T20:49:08.203Z,49.80
2019-04-05T20:51:37.714Z,50.10
2019-04-05T20:54:07.211Z,49.70
2019-04-05T20:56:36.741Z,49.80
2019-04-05T20:59:06.189Z,49.80
2019-04-05T21:01:35.648Z,49.60
2019-04-05T21:04:05.267Z,49.50
2019-04-05T21:06:34.702Z,49.50
2019-04-05T21:09:06.390Z,49.50
2019-04-05T21:11:36.456Z,49.00
2019-04-05T21:14:05.997Z,49.30
2019-04-05T21:16:35.435Z,49.30
2019-04-05T21:19:05.986Z,49.30
2019-04-05T21:21:36.961Z,49.00
2019-04-05T21:24:07.305Z,49.10
2019-04-05T21:26:36.763Z,49.60
2019-04-05T21:29:07.930Z,49.30
2019-04-05T21:31:37.373Z,49.30
2019-04-05T21:34:06.887Z,49.60
2019-04-05T21:36:36.314Z,49.30
2019-04-05T21:39:07.304Z,49.30
2019-04-05T21:41:37.118Z,49.20
2019-04-05T21:44:06.755Z,49.10
2019-04-05T21:46:36.219Z,49.30
2019-04-05T21:49:05.738Z,49.60
2019-04-05T21:51:35.230Z,49.90
2019-04-05T21:54:04.867Z,49.90
2019-04-05T21:56:34.342Z,49.60
2019-04-05T21:59:03.820Z,49.50
2019-04-05T22:01:33.383Z,49.70
2019-04-05T22:04:03.212Z,49.60
2019-04-05T22:06:32.654Z,50.00
2019-04-05T22:09:02.168Z,49.90
2019-04-05T22:11:32.462Z,50.00
2019-04-05T22:14:01.978Z,49.90
2019-04-05T22:16:31.486Z,50.20
2019-04-05T22:19:00.964Z,50.40
2019-04-05T22:21:30.514Z,50.50
2019-04-05T22:23:59.956Z,50.20
2019-04-05T22:26:29.448Z,50.60
2019-04-05T22:28:58.887Z,50.20
2019-04-05T22:32:08.111Z,50.00
2019-04-05T22:34:37.550Z,49.60
2019-04-05T22:37:06.988Z,49.90
2019-04-05T22:39:36.597Z,49.80
2019-04-05T22:42:06.052Z,49.70
2019-04-05T22:44:39.949Z,49.60
2019-04-05T22:47:06.593Z,49.90
2019-04-05T22:49:36.079Z,49.70
2019-04-05T22:52:05.516Z,49.80
2019-04-05T22:54:34.998Z,49.90
2019-04-05T22:57:04.586Z,50.00
2019-04-05T22:59:34.017Z,50.10
2019-04-05T23:02:03.482Z,50.10
2019-04-05T23:04:32.991Z,50.10
2019-04-05T23:07:02.392Z,50.20
2019-04-05T23:09:31.925Z,50.10
2019-04-05T23:12:01.318Z,50.00
2019-04-05T23:17:12.492Z,50.10
2019-04-05T23:19:41.942Z,50.20
2019-04-05T23:22:11.441Z,50.50
2019-04-05T23:24:40.868Z,50.50
2019-04-05T23:27:10.312Z,50.50
2019-04-05T23:29:39.754Z,50.60
2019-04-05T23:32:09.282Z,50.60
2019-04-05T23:34:38.735Z,50.60
2019-04-05T23:37:08.199Z,50.70
2019-04-05T23:39:39.298Z,50.90
2019-04-05T23:42:08.887Z,51.00
2019-04-05T23:44:38.339Z,51.50
2019-04-05T23:47:07.874Z,51.30
2019-04-05T23:49:37.258Z,51.40
2019-04-05T23:52:07.786Z,51.30
2019-04-05T23:54:37.304Z,51.50
2019-04-05T23:57:06.760Z,51.50
2019-04-05T23:59:36.261Z,51.70
